Hewlett Neck, New York
Current Conditions -  °F | °C
As of 3:51 PM on Monday 24 Nov 2014 (Local Time) from KJFK Reporting Station
Scattered Clouds Scattered Clouds  
Wind Chill: 57°   Ceiling: Unl
Heat Index: 57°   Visibility: 10mi
Dew Point: 54°   Wind: 22mph
Humidity: 89%   Direction: 190°S
Pressure: 29.61"   Gusts: NA
Location:  40.632°N, 73.7113°W
Report Text: KJFK 242051Z 19019KT 10SM FEW004 SCT035 14/12 A2961 RMK AO2 PK WND 17026/2019 SLP027 T01390122 55001 $
Loading
Personal Weather Stations






























Interactive Weather Map New forecast layout! Learn more

10-Day Weather Forecast

Advertisements
Track Severe Weather on mobile